createdAt,value
2018-03-23T00:00:15.156Z,0
2018-03-23T00:01:23.989Z,0
2018-03-23T00:02:32.817Z,0
2018-03-23T00:03:41.758Z,0
2018-03-23T00:04:50.586Z,0
2018-03-23T00:05:59.416Z,0
2018-03-23T00:07:08.248Z,0
2018-03-23T00:08:17.087Z,0
2018-03-23T00:09:25.957Z,0
2018-03-23T00:10:34.785Z,0
2018-03-23T00:11:43.911Z,0
2018-03-23T00:12:52.744Z,0
2018-03-23T00:14:01.851Z,0
2018-03-23T00:15:11.359Z,0
2018-03-23T00:16:20.189Z,0
2018-03-23T00:17:29.023Z,0
2018-03-23T00:18:38.136Z,0
2018-03-23T00:19:46.963Z,0
2018-03-23T00:20:56.176Z,0
2018-03-23T00:22:05.011Z,0
2018-03-23T00:23:13.906Z,0
2018-03-23T00:24:22.677Z,0
2018-03-23T00:25:31.509Z,0
2018-03-23T00:26:40.490Z,0
2018-03-23T00:27:49.318Z,0
2018-03-23T00:28:58.424Z,0
2018-03-23T00:30:07.529Z,0
2018-03-23T00:31:16.364Z,0
2018-03-23T00:32:25.243Z,0
2018-03-23T00:33:34.359Z,0
2018-03-23T00:34:43.193Z,0
2018-03-23T00:35:52.302Z,0
2018-03-23T00:37:01.137Z,0
2018-03-23T00:38:10.064Z,0
2018-03-23T00:39:18.894Z,0
2018-03-23T00:40:27.722Z,0
2018-03-23T00:41:36.553Z,0
2018-03-23T00:42:45.386Z,0
2018-03-23T00:43:54.618Z,0
2018-03-23T00:45:03.452Z,0
2018-03-23T00:46:12.279Z,0
2018-03-23T00:47:21.384Z,0
2018-03-23T00:48:30.215Z,0
2018-03-23T00:49:39.147Z,0
2018-03-23T00:50:47.980Z,0
2018-03-23T00:51:56.810Z,0
2018-03-23T00:53:05.641Z,0
2018-03-23T00:54:14.469Z,0
2018-03-23T00:55:23.300Z,0
2018-03-23T00:56:32.131Z,0
2018-03-23T00:57:40.961Z,0
2018-03-23T00:58:49.792Z,0
2018-03-23T00:59:58.619Z,0
2018-03-23T01:01:07.749Z,0
2018-03-23T01:02:16.851Z,0
2018-03-23T01:03:25.684Z,0
2018-03-23T01:04:34.510Z,0
2018-03-23T01:05:43.342Z,0
2018-03-23T01:06:52.470Z,0
2018-03-23T01:08:01.300Z,0
2018-03-23T01:09:10.133Z,0
2018-03-23T01:10:18.963Z,0
2018-03-23T01:11:27.794Z,0
2018-03-23T01:12:36.879Z,0
2018-03-23T01:13:45.709Z,0
2018-03-23T01:14:54.640Z,0
2018-03-23T01:16:03.477Z,0
2018-03-23T01:17:12.306Z,0
2018-03-23T01:18:21.414Z,0
2018-03-23T01:19:30.523Z,0
2018-03-23T01:20:39.352Z,0
2018-03-23T01:21:48.187Z,0
2018-03-23T01:22:57.014Z,0
2018-03-23T01:24:05.893Z,0
2018-03-23T01:25:14.722Z,0
2018-03-23T01:26:23.557Z,0
2018-03-23T01:27:32.388Z,0
2018-03-23T01:28:41.214Z,0
2018-03-23T01:29:50.245Z,0
2018-03-23T01:30:59.127Z,0
2018-03-23T01:32:07.959Z,0
2018-03-23T01:33:16.791Z,0
2018-03-23T01:34:25.903Z,0
2018-03-23T01:35:34.832Z,0
2018-03-23T01:36:44.002Z,0
2018-03-23T01:37:52.833Z,0
2018-03-23T01:39:01.660Z,0
2018-03-23T01:40:10.492Z,0
2018-03-23T01:41:19.576Z,0
2018-03-23T01:42:28.410Z,0
2018-03-23T01:43:37.239Z,0
2018-03-23T01:44:46.068Z,0
2018-03-23T01:45:54.898Z,0
2018-03-23T01:47:03.780Z,0
2018-03-23T01:48:12.611Z,0
2018-03-23T01:49:21.443Z,0
2018-03-23T01:50:30.274Z,0
2018-03-23T01:51:39.105Z,0
2018-03-23T01:52:47.935Z,0
2018-03-23T01:53:56.766Z,0
2018-03-23T01:55:05.596Z,0
2018-03-23T01:56:14.431Z,0
2018-03-23T01:57:23.260Z,0
2018-03-23T01:58:32.194Z,0
2018-03-23T01:59:41.027Z,0
2018-03-23T02:00:49.851Z,0
2018-03-23T02:01:58.682Z,0
2018-03-23T02:03:07.512Z,0
2018-03-23T02:04:16.442Z,0
2018-03-23T02:05:25.282Z,0
2018-03-23T02:06:34.102Z,0
2018-03-23T02:07:43.208Z,0
2018-03-23T02:08:52.050Z,0
2018-03-23T02:10:00.921Z,0
2018-03-23T02:11:09.906Z,0
2018-03-23T02:12:19.285Z,0
2018-03-23T02:13:28.118Z,0
2018-03-23T02:14:36.946Z,0
2018-03-23T02:15:45.938Z,0
2018-03-23T02:16:54.769Z,0
2018-03-23T02:18:03.599Z,0
2018-03-23T02:19:12.433Z,0
2018-03-23T02:20:21.258Z,0
2018-03-23T02:21:30.381Z,0
2018-03-23T02:22:39.502Z,0
2018-03-23T02:23:48.330Z,0
2018-03-23T02:24:57.159Z,0
2018-03-23T02:26:05.987Z,0
2018-03-23T02:27:15.070Z,0
2018-03-23T02:28:23.900Z,0
2018-03-23T02:29:32.734Z,0
2018-03-23T02:30:41.559Z,0
2018-03-23T02:31:50.395Z,0
2018-03-23T02:32:59.375Z,0
2018-03-23T02:34:08.485Z,0
2018-03-23T02:35:17.315Z,0
2018-03-23T02:36:26.148Z,0
2018-03-23T02:37:35.257Z,0
2018-03-23T02:38:44.393Z,0
2018-03-23T02:39:53.564Z,0
2018-03-23T02:41:02.396Z,0
2018-03-23T02:42:11.234Z,0
2018-03-23T02:43:20.073Z,0
2018-03-23T02:44:29.006Z,0
2018-03-23T02:45:37.840Z,0
2018-03-23T02:46:46.694Z,0
2018-03-23T02:47:55.502Z,0
2018-03-23T02:49:04.615Z,0
2018-03-23T02:50:14.148Z,0
2018-03-23T02:51:22.995Z,0
2018-03-23T02:52:31.830Z,0
2018-03-23T02:53:41.225Z,0
2018-03-23T02:54:50.055Z,0
2018-03-23T02:55:59.161Z,0
2018-03-23T02:57:08.277Z,0
2018-03-23T02:58:17.108Z,0
2018-03-23T02:59:26.219Z,0
2018-03-23T03:00:35.065Z,0
2018-03-23T03:01:43.883Z,0
2018-03-23T03:02:52.992Z,0
2018-03-23T03:04:01.823Z,0
2018-03-23T03:05:10.951Z,0
2018-03-23T03:06:19.782Z,0
2018-03-23T03:07:28.764Z,0
2018-03-23T03:08:37.595Z,0
2018-03-23T03:09:46.424Z,0
2018-03-23T03:10:55.255Z,0
2018-03-23T03:12:04.363Z,0
2018-03-23T03:13:13.444Z,0
2018-03-23T03:14:22.279Z,0
2018-03-23T03:15:31.115Z,0
2018-03-23T03:16:39.943Z,0
2018-03-23T03:17:48.775Z,0
2018-03-23T03:18:57.607Z,0
2018-03-23T03:20:06.440Z,0
2018-03-23T03:21:15.272Z,0
2018-03-23T03:22:24.102Z,0
2018-03-23T03:23:32.929Z,0
2018-03-23T03:24:42.345Z,0
2018-03-23T03:25:51.174Z,0
2018-03-23T03:27:00.006Z,0
2018-03-23T03:28:08.835Z,0
2018-03-23T03:29:17.666Z,0
2018-03-23T03:30:26.799Z,0
2018-03-23T03:31:35.633Z,0
2018-03-23T03:32:44.458Z,0
2018-03-23T03:33:53.290Z,0
2018-03-23T03:35:02.119Z,0
2018-03-23T03:36:11.250Z,0
2018-03-23T03:37:20.084Z,0
2018-03-23T03:38:28.917Z,0
2018-03-23T03:39:37.746Z,0
2018-03-23T03:40:46.576Z,0
2018-03-23T03:41:55.406Z,0
2018-03-23T03:43:04.517Z,0
2018-03-23T03:44:13.345Z,0
2018-03-23T03:45:22.175Z,0
2018-03-23T03:46:31.006Z,0
2018-03-23T03:47:40.039Z,0
2018-03-23T03:48:48.868Z,0
2018-03-23T03:49:57.698Z,0
2018-03-23T03:51:06.529Z,0
2018-03-23T03:52:15.359Z,0
2018-03-23T03:53:24.348Z,0
2018-03-23T03:54:33.454Z,0
2018-03-23T03:55:42.285Z,0
2018-03-23T03:56:51.116Z,0
2018-03-23T03:57:59.948Z,0
2018-03-23T03:59:08.933Z,0
2018-03-23T04:00:18.039Z,0
2018-03-23T04:01:26.868Z,0
2018-03-23T04:02:35.703Z,0
2018-03-23T04:03:44.533Z,0
2018-03-23T04:04:53.787Z,0
2018-03-23T04:06:02.618Z,0
2018-03-23T04:07:11.454Z,0
2018-03-23T04:08:20.288Z,0
2018-03-23T04:09:29.120Z,0
2018-03-23T04:10:38.252Z,0
2018-03-23T04:11:47.087Z,0
2018-03-23T04:12:55.914Z,0
2018-03-23T04:14:05.017Z,0
2018-03-23T04:15:14.125Z,0
2018-03-23T04:16:23.107Z,0
2018-03-23T04:17:31.937Z,0
2018-03-23T04:18:41.044Z,0
2018-03-23T04:19:49.876Z,0
2018-03-23T04:20:58.709Z,0
2018-03-23T04:22:07.640Z,0
2018-03-23T04:23:16.472Z,0
2018-03-23T04:24:25.359Z,0
2018-03-23T04:25:34.132Z,0
2018-03-23T04:26:42.962Z,0
2018-03-23T04:27:52.152Z,0
2018-03-23T04:29:00.929Z,0
2018-03-23T04:30:10.035Z,0
2018-03-23T04:31:18.868Z,0
2018-03-23T04:32:27.697Z,0
2018-03-23T04:33:36.829Z,0
2018-03-23T04:34:45.660Z,0
2018-03-23T04:35:54.492Z,0
2018-03-23T04:37:03.323Z,0
2018-03-23T04:38:12.154Z,0
2018-03-23T04:39:21.136Z,0
2018-03-23T04:40:29.967Z,0
2018-03-23T04:41:39.354Z,0
2018-03-23T04:42:48.185Z,0
2018-03-23T04:43:57.014Z,0
2018-03-23T04:45:06.124Z,0
2018-03-23T04:46:14.955Z,0
2018-03-23T04:47:24.059Z,0
2018-03-23T04:48:32.889Z,0
2018-03-23T04:49:41.730Z,0
2018-03-23T04:50:50.607Z,0
2018-03-23T04:51:59.434Z,0
2018-03-23T04:53:08.264Z,0
2018-03-23T04:54:17.094Z,0
2018-03-23T04:55:25.925Z,0
2018-03-23T04:56:34.755Z,0
2018-03-23T04:57:43.586Z,0
2018-03-23T04:58:52.420Z,0
2018-03-23T05:00:01.527Z,0
2018-03-23T05:01:10.357Z,0
2018-03-23T05:02:19.238Z,0
2018-03-23T05:03:28.075Z,0
2018-03-23T05:04:36.902Z,0
2018-03-23T05:05:45.731Z,0
2018-03-23T05:06:54.562Z,0
2018-03-23T05:08:03.527Z,0
2018-03-23T05:09:12.325Z,0
2018-03-23T05:10:21.155Z,0
2018-03-23T05:11:29.986Z,0
2018-03-23T05:12:39.094Z,0
2018-03-23T05:13:48.077Z,0
2018-03-23T05:14:56.908Z,0
2018-03-23T05:16:05.738Z,0
2018-03-23T05:17:14.571Z,0
2018-03-23T05:18:23.401Z,0
2018-03-23T05:19:32.560Z,0
2018-03-23T05:20:41.396Z,0
2018-03-23T05:21:50.500Z,5
2018-03-23T05:22:59.346Z,5
2018-03-23T05:24:08.457Z,5
2018-03-23T05:25:17.442Z,5
2018-03-23T05:26:26.274Z,5
2018-03-23T05:27:35.108Z,5
2018-03-23T05:28:43.936Z,5
2018-03-23T05:29:52.768Z,5
2018-03-23T05:31:01.753Z,5
2018-03-23T05:32:10.583Z,10
2018-03-23T05:33:19.688Z,10
2018-03-23T05:34:28.519Z,10
2018-03-23T05:35:37.352Z,15
2018-03-23T05:36:46.484Z,15
2018-03-23T05:37:55.595Z,15
2018-03-23T05:39:04.431Z,15
2018-03-23T05:40:13.259Z,20
2018-03-23T05:41:22.089Z,20
2018-03-23T05:42:31.070Z,20
2018-03-23T05:43:39.902Z,20
2018-03-23T05:44:48.786Z,25
2018-03-23T05:45:57.617Z,25
2018-03-23T05:47:06.452Z,25
2018-03-23T05:48:15.334Z,30
2018-03-23T05:49:24.164Z,30
2018-03-23T05:50:33.009Z,30
2018-03-23T05:51:42.105Z,35
2018-03-23T05:52:50.934Z,35
2018-03-23T05:53:59.915Z,35
2018-03-23T05:55:09.042Z,35
2018-03-23T05:56:17.871Z,35
2018-03-23T05:57:26.701Z,40
2018-03-23T05:58:35.535Z,40
2018-03-23T05:59:44.643Z,40
2018-03-23T06:00:53.474Z,35
2018-03-23T06:02:02.584Z,35
2018-03-23T06:03:11.414Z,35
2018-03-23T06:04:20.246Z,40
2018-03-23T06:05:29.230Z,45
2018-03-23T06:06:38.065Z,45
2018-03-23T06:07:46.896Z,45
2018-03-23T06:08:55.730Z,45
2018-03-23T06:10:04.560Z,40
2018-03-23T06:11:13.592Z,35
2018-03-23T06:12:22.425Z,40
2018-03-23T06:13:31.304Z,45
2018-03-23T06:14:40.138Z,45
2018-03-23T06:15:48.967Z,45
2018-03-23T06:16:57.897Z,40
2018-03-23T06:18:06.730Z,45
2018-03-23T06:19:15.558Z,55
2018-03-23T06:20:24.403Z,55
2018-03-23T06:21:33.236Z,55
2018-03-23T06:22:42.088Z,55
2018-03-23T06:23:50.906Z,55
2018-03-23T06:25:00.020Z,60
2018-03-23T06:26:08.849Z,65
2018-03-23T06:27:17.981Z,70
2018-03-23T06:28:26.814Z,70
2018-03-23T06:29:35.922Z,70
2018-03-23T06:30:44.755Z,70
2018-03-23T06:31:53.590Z,65
2018-03-23T06:33:02.420Z,60
2018-03-23T06:34:11.527Z,55
2018-03-23T06:35:20.361Z,50
2018-03-23T06:36:29.292Z,50
2018-03-23T06:37:38.221Z,55
2018-03-23T06:38:47.051Z,60
2018-03-23T06:39:55.884Z,60
2018-03-23T06:41:04.720Z,60
2018-03-23T06:42:13.553Z,60
2018-03-23T06:43:22.384Z,65
2018-03-23T06:44:31.227Z,60
2018-03-23T06:45:40.061Z,55
2018-03-23T06:46:48.892Z,60
2018-03-23T06:47:57.999Z,65
2018-03-23T06:49:06.831Z,65
2018-03-23T06:50:15.940Z,65
2018-03-23T06:51:24.770Z,60
2018-03-23T06:52:33.600Z,70
2018-03-23T06:53:42.679Z,70
2018-03-23T06:54:51.791Z,70
2018-03-23T06:56:00.624Z,80
2018-03-23T06:57:09.458Z,90
2018-03-23T06:58:18.576Z,110
2018-03-23T06:59:27.602Z,110
2018-03-23T07:00:36.434Z,120
2018-03-23T07:01:45.541Z,125
2018-03-23T07:02:54.653Z,135
2018-03-23T07:04:03.763Z,150
2018-03-23T07:05:12.699Z,145
2018-03-23T07:06:21.809Z,135
2018-03-23T07:07:30.643Z,110
2018-03-23T07:08:39.474Z,95
2018-03-23T07:09:48.587Z,90
2018-03-23T07:10:57.498Z,95
2018-03-23T07:12:06.304Z,100
2018-03-23T07:13:15.135Z,95
2018-03-23T07:14:23.971Z,85
2018-03-23T07:15:33.086Z,85
2018-03-23T07:16:42.344Z,85
2018-03-23T07:17:51.187Z,95
2018-03-23T07:19:00.293Z,100
2018-03-23T07:20:09.124Z,100
2018-03-23T07:21:17.959Z,105
2018-03-23T07:22:26.887Z,125
2018-03-23T07:23:35.951Z,140
2018-03-23T07:24:44.786Z,130
2018-03-23T07:25:53.619Z,125
2018-03-23T07:27:02.453Z,135
2018-03-23T07:28:11.285Z,165
2018-03-23T07:29:20.153Z,175
2018-03-23T07:30:29.792Z,175
2018-03-23T07:31:38.625Z,175
2018-03-23T07:32:47.478Z,160
2018-03-23T07:33:56.296Z,145
2018-03-23T07:35:05.128Z,155
2018-03-23T07:36:13.959Z,175
2018-03-23T07:37:22.789Z,200
2018-03-23T07:38:31.622Z,235
2018-03-23T07:39:40.506Z,250
2018-03-23T07:40:49.346Z,255
2018-03-23T07:41:58.453Z,255
2018-03-23T07:43:07.282Z,250
2018-03-23T07:44:16.115Z,240
2018-03-23T07:45:25.101Z,230
2018-03-23T07:46:33.932Z,230
2018-03-23T07:47:42.769Z,255
2018-03-23T07:48:51.878Z,250
2018-03-23T07:50:00.709Z,240
2018-03-23T07:51:09.694Z,260
2018-03-23T07:52:18.826Z,255
2018-03-23T07:53:27.642Z,250
2018-03-23T07:54:36.477Z,240
2018-03-23T07:55:45.312Z,235
2018-03-23T07:56:54.299Z,220
2018-03-23T07:58:03.157Z,205
2018-03-23T07:59:11.969Z,200
2018-03-23T08:00:20.804Z,210
2018-03-23T08:01:29.637Z,220
2018-03-23T08:02:38.520Z,220
2018-03-23T08:03:47.356Z,210
2018-03-23T08:04:56.189Z,195
2018-03-23T08:06:05.019Z,185
2018-03-23T08:07:13.852Z,180
2018-03-23T08:08:22.783Z,185
2018-03-23T08:09:31.616Z,190
2018-03-23T08:10:40.451Z,205
2018-03-23T08:11:49.568Z,220
2018-03-23T08:12:58.402Z,240
2018-03-23T08:14:07.236Z,245
2018-03-23T08:15:16.067Z,245
2018-03-23T08:16:25.179Z,245
2018-03-23T08:17:34.014Z,260
2018-03-23T08:18:42.849Z,265
2018-03-23T08:19:51.736Z,255
2018-03-23T08:21:00.570Z,250
2018-03-23T08:22:09.684Z,250
2018-03-23T08:23:18.518Z,245
2018-03-23T08:24:27.352Z,240
2018-03-23T08:25:36.288Z,230
2018-03-23T08:26:45.397Z,210
2018-03-23T08:27:54.783Z,200
2018-03-23T08:29:03.616Z,200
2018-03-23T08:30:12.448Z,190
2018-03-23T08:31:21.432Z,190
2018-03-23T08:32:30.267Z,200
2018-03-23T08:33:39.099Z,200
2018-03-23T08:34:47.930Z,200
2018-03-23T08:35:56.764Z,195
2018-03-23T08:37:05.596Z,205
2018-03-23T08:38:14.434Z,225
2018-03-23T08:39:23.538Z,240
2018-03-23T08:40:32.371Z,245
2018-03-23T08:41:41.226Z,245
2018-03-23T08:42:50.289Z,225
2018-03-23T08:43:59.128Z,200
2018-03-23T08:45:07.959Z,180
2018-03-23T08:46:16.794Z,160
2018-03-23T08:47:25.903Z,145
2018-03-23T08:48:35.160Z,125
2018-03-23T08:49:43.992Z,105
2018-03-23T08:50:52.827Z,100
2018-03-23T08:52:01.659Z,100
2018-03-23T08:53:10.488Z,115
2018-03-23T08:54:19.849Z,130
2018-03-23T08:55:28.682Z,135
2018-03-23T08:56:37.517Z,135
2018-03-23T08:57:46.350Z,140
2018-03-23T08:58:55.185Z,135
2018-03-23T09:00:04.222Z,135
2018-03-23T09:01:13.054Z,140
2018-03-23T09:02:21.886Z,135
2018-03-23T09:03:30.720Z,130
2018-03-23T09:04:39.552Z,125
2018-03-23T09:05:48.816Z,110
2018-03-23T09:06:58.201Z,115
2018-03-23T09:08:07.035Z,145
2018-03-23T09:09:15.874Z,160
2018-03-23T09:10:24.979Z,170
2018-03-23T09:11:37.315Z,175
2018-03-23T09:12:46.148Z,195
2018-03-23T09:13:54.979Z,200
2018-03-23T09:15:03.812Z,195
2018-03-23T09:16:12.647Z,200
2018-03-23T09:17:21.735Z,205
2018-03-23T09:18:30.569Z,190
2018-03-23T09:19:39.954Z,190
2018-03-23T09:20:48.786Z,185
2018-03-23T09:21:57.618Z,175
2018-03-23T09:23:06.802Z,175
2018-03-23T09:24:15.639Z,180
2018-03-23T09:25:24.470Z,180
2018-03-23T09:26:33.580Z,190
2018-03-23T09:27:42.411Z,190
2018-03-23T09:28:51.524Z,190
2018-03-23T09:30:00.360Z,185
2018-03-23T09:31:09.515Z,175
2018-03-23T09:32:18.305Z,175
2018-03-23T09:33:27.137Z,175
2018-03-23T09:34:36.125Z,185
2018-03-23T09:35:44.956Z,200
2018-03-23T09:36:53.798Z,195
2018-03-23T09:38:02.898Z,190
2018-03-23T09:39:11.731Z,200
2018-03-23T09:40:21.145Z,195
2018-03-23T09:41:29.976Z,190
2018-03-23T09:42:38.810Z,185
2018-03-23T09:43:47.643Z,190
2018-03-23T09:44:56.475Z,185
2018-03-23T09:46:05.362Z,185
2018-03-23T09:47:14.475Z,195
2018-03-23T09:48:23.308Z,210
2018-03-23T09:49:32.140Z,220
2018-03-23T09:50:40.976Z,220
2018-03-23T09:51:49.810Z,225
2018-03-23T09:52:58.646Z,215
2018-03-23T09:54:07.484Z,205
2018-03-23T09:55:16.319Z,200
2018-03-23T09:56:25.152Z,205
2018-03-23T09:57:34.086Z,215
2018-03-23T09:58:42.936Z,215
2018-03-23T09:59:51.751Z,210
2018-03-23T10:01:00.585Z,220
2018-03-23T10:02:09.422Z,235
2018-03-23T10:03:18.652Z,250
2018-03-23T10:04:27.497Z,250
2018-03-23T10:05:36.321Z,245
2018-03-23T10:06:45.156Z,240
2018-03-23T10:07:54.543Z,230
2018-03-23T10:09:03.706Z,225
2018-03-23T10:10:12.540Z,215
2018-03-23T10:11:21.381Z,205
2018-03-23T10:12:30.766Z,205
2018-03-23T10:13:39.598Z,210
2018-03-23T10:14:48.433Z,215
2018-03-23T10:15:57.270Z,210
2018-03-23T10:17:06.107Z,205
2018-03-23T10:18:14.940Z,195
2018-03-23T10:19:23.772Z,190
2018-03-23T10:20:32.710Z,205
2018-03-23T10:21:41.578Z,210
2018-03-23T10:22:50.384Z,195
2018-03-23T10:23:59.212Z,190
2018-03-23T10:25:08.043Z,175
2018-03-23T10:26:17.177Z,160
2018-03-23T10:27:26.012Z,160
2018-03-23T10:28:35.148Z,155
2018-03-23T10:29:44.291Z,150
2018-03-23T10:30:53.408Z,150
2018-03-23T10:32:02.393Z,170
2018-03-23T10:33:11.227Z,175
2018-03-23T10:34:20.062Z,170
2018-03-23T10:35:28.958Z,155
2018-03-23T10:36:37.784Z,165
2018-03-23T10:37:47.097Z,175
2018-03-23T10:38:55.924Z,190
2018-03-23T10:40:04.761Z,190
2018-03-23T10:41:13.604Z,175
2018-03-23T10:42:22.436Z,170
2018-03-23T10:43:31.323Z,175
2018-03-23T10:44:40.437Z,180
2018-03-23T10:45:49.272Z,180
2018-03-23T10:46:58.103Z,165
2018-03-23T10:48:06.936Z,165
2018-03-23T10:49:16.048Z,175
2018-03-23T10:50:25.158Z,190
2018-03-23T10:51:33.991Z,205
2018-03-23T10:52:43.140Z,200
2018-03-23T10:53:52.253Z,180
2018-03-23T10:55:01.460Z,185
2018-03-23T10:56:10.567Z,180
2018-03-23T10:57:19.402Z,175
2018-03-23T10:58:28.237Z,180
2018-03-23T10:59:37.074Z,180
2018-03-23T11:00:45.957Z,190
2018-03-23T11:01:54.790Z,210
2018-03-23T11:03:03.907Z,220
2018-03-23T11:04:12.738Z,230
2018-03-23T11:05:21.573Z,235
2018-03-23T11:06:30.458Z,210
2018-03-23T11:07:39.846Z,200
2018-03-23T11:08:48.956Z,195
2018-03-23T11:09:57.787Z,195
2018-03-23T11:11:06.617Z,220
2018-03-23T11:12:15.551Z,235
2018-03-23T11:13:24.383Z,275
2018-03-23T11:14:33.218Z,270
2018-03-23T11:15:42.050Z,245
2018-03-23T11:16:50.883Z,240
2018-03-23T11:17:59.721Z,255
2018-03-23T11:19:08.550Z,265
2018-03-23T11:20:17.384Z,255
2018-03-23T11:21:26.217Z,240
2018-03-23T11:22:35.050Z,230
2018-03-23T11:23:43.992Z,220
2018-03-23T11:24:53.097Z,210
2018-03-23T11:26:01.928Z,205
2018-03-23T11:27:10.760Z,215
2018-03-23T11:28:19.596Z,230
2018-03-23T11:29:28.476Z,235
2018-03-23T11:30:37.311Z,235
2018-03-23T11:31:46.143Z,240
2018-03-23T11:32:54.975Z,250
2018-03-23T11:34:03.812Z,275
2018-03-23T11:35:12.744Z,290
2018-03-23T11:36:21.576Z,295
2018-03-23T11:37:30.409Z,275
2018-03-23T11:38:39.244Z,245
2018-03-23T11:39:48.360Z,230
2018-03-23T11:40:57.520Z,215
2018-03-23T11:42:06.355Z,215
2018-03-23T11:43:15.190Z,205
2018-03-23T11:44:24.077Z,195
2018-03-23T11:45:33.425Z,180
2018-03-23T11:46:42.407Z,165
2018-03-23T11:47:51.522Z,150
2018-03-23T11:49:00.356Z,150
2018-03-23T11:50:09.192Z,145
2018-03-23T11:51:18.024Z,140
2018-03-23T11:52:26.959Z,145
2018-03-23T11:53:35.794Z,160
2018-03-23T11:54:44.629Z,190
2018-03-23T11:55:53.737Z,210
2018-03-23T11:57:02.570Z,220
2018-03-23T11:58:11.804Z,215
2018-03-23T11:59:20.639Z,200
2018-03-23T12:00:30.022Z,185
2018-03-23T12:01:38.855Z,185
2018-03-23T12:02:47.692Z,185
2018-03-23T12:03:56.573Z,190
2018-03-23T12:05:05.684Z,195
2018-03-23T12:06:14.521Z,195
2018-03-23T12:07:23.356Z,185
2018-03-23T12:08:32.189Z,185
2018-03-23T12:09:41.227Z,175
2018-03-23T12:10:50.056Z,170
2018-03-23T12:11:58.890Z,165
2018-03-23T12:13:07.725Z,165
2018-03-23T12:14:16.580Z,165
2018-03-23T12:15:25.918Z,170
2018-03-23T12:16:34.753Z,175
2018-03-23T12:17:43.590Z,170
2018-03-23T12:18:52.428Z,165
2018-03-23T12:20:01.261Z,150
2018-03-23T12:21:10.620Z,140
2018-03-23T12:22:19.453Z,135
2018-03-23T12:23:28.558Z,130
2018-03-23T12:24:37.391Z,135
2018-03-23T12:25:46.228Z,130
2018-03-23T12:26:55.210Z,125
2018-03-23T12:28:04.052Z,125
2018-03-23T12:29:13.163Z,130
2018-03-23T12:30:21.998Z,135
2018-03-23T12:31:30.831Z,140
2018-03-23T12:32:40.042Z,145
2018-03-23T12:33:48.876Z,150
2018-03-23T12:34:58.131Z,150
2018-03-23T12:36:06.968Z,145
2018-03-23T12:37:15.799Z,145
2018-03-23T12:38:24.959Z,140
2018-03-23T12:39:33.844Z,140
2018-03-23T12:40:42.676Z,140
2018-03-23T12:41:51.516Z,145
2018-03-23T12:43:00.341Z,155
2018-03-23T12:44:09.477Z,165
2018-03-23T12:45:18.310Z,170
2018-03-23T12:46:27.148Z,180
2018-03-23T12:47:36.257Z,180
2018-03-23T12:48:45.369Z,180
2018-03-23T12:49:54.305Z,175
2018-03-23T12:51:03.170Z,160
2018-03-23T12:52:11.971Z,155
2018-03-23T12:53:20.806Z,150
2018-03-23T12:54:29.639Z,140
2018-03-23T12:55:38.575Z,130
2018-03-23T12:56:47.406Z,135
2018-03-23T12:57:56.584Z,135
2018-03-23T12:59:05.420Z,130
2018-03-23T13:00:14.254Z,125
2018-03-23T13:01:23.240Z,120
2018-03-23T13:02:32.073Z,115
2018-03-23T13:03:40.964Z,120
2018-03-23T13:04:49.738Z,125
2018-03-23T13:05:58.581Z,120
2018-03-23T13:07:07.407Z,130
2018-03-23T13:08:16.245Z,140
2018-03-23T13:09:25.091Z,140
2018-03-23T13:10:33.910Z,140
2018-03-23T13:11:42.741Z,160
2018-03-23T13:12:51.624Z,145
2018-03-23T13:14:00.459Z,150
2018-03-23T13:15:09.291Z,155
2018-03-23T13:16:18.409Z,155
2018-03-23T13:17:27.241Z,165
2018-03-23T13:18:36.374Z,180
2018-03-23T13:19:45.206Z,185
2018-03-23T13:20:54.052Z,205
2018-03-23T13:22:02.879Z,205
2018-03-23T13:23:11.712Z,200
2018-03-23T13:24:21.120Z,195
2018-03-23T13:25:30.232Z,175
2018-03-23T13:26:39.340Z,155
2018-03-23T13:27:48.456Z,155
2018-03-23T13:28:57.283Z,160
2018-03-23T13:30:06.116Z,160
2018-03-23T13:31:14.949Z,150
2018-03-23T13:32:23.784Z,150
2018-03-23T13:33:32.620Z,145
2018-03-23T13:34:41.451Z,145
2018-03-23T13:35:50.434Z,115
2018-03-23T13:36:59.269Z,110
2018-03-23T13:38:08.103Z,110
2018-03-23T13:39:16.935Z,115
2018-03-23T13:40:26.055Z,135
2018-03-23T13:41:35.224Z,135
2018-03-23T13:42:44.058Z,135
2018-03-23T13:43:52.888Z,150
2018-03-23T13:45:01.722Z,170
2018-03-23T13:46:10.832Z,190
2018-03-23T13:47:19.766Z,190
2018-03-23T13:48:28.602Z,195
2018-03-23T13:49:37.715Z,220
2018-03-23T13:50:46.547Z,245
2018-03-23T13:51:55.380Z,275
2018-03-23T13:53:04.364Z,290
2018-03-23T13:54:13.198Z,250
2018-03-23T13:55:22.031Z,225
2018-03-23T13:56:30.864Z,180
2018-03-23T13:57:39.700Z,150
2018-03-23T13:58:48.936Z,125
2018-03-23T13:59:57.771Z,130
2018-03-23T14:01:06.606Z,145
2018-03-23T14:02:15.440Z,150
2018-03-23T14:03:24.547Z,140
2018-03-23T14:04:33.529Z,135
2018-03-23T14:05:42.364Z,120
2018-03-23T14:06:51.197Z,125
2018-03-23T14:08:00.032Z,125
2018-03-23T14:09:08.865Z,115
2018-03-23T14:10:17.799Z,105
2018-03-23T14:11:26.632Z,105
2018-03-23T14:12:35.468Z,105
2018-03-23T14:13:44.301Z,105
2018-03-23T14:14:53.136Z,110
2018-03-23T14:16:02.349Z,110
2018-03-23T14:17:11.176Z,110
2018-03-23T14:18:20.008Z,105
2018-03-23T14:19:29.130Z,110
2018-03-23T14:20:38.515Z,105
2018-03-23T14:21:47.448Z,95
2018-03-23T14:22:56.282Z,95
2018-03-23T14:24:05.112Z,95
2018-03-23T14:25:13.946Z,110
2018-03-23T14:26:23.053Z,115
2018-03-23T14:27:31.936Z,105
2018-03-23T14:28:40.782Z,95
2018-03-23T14:29:49.875Z,100
2018-03-23T14:30:58.708Z,115
2018-03-23T14:32:07.544Z,90
2018-03-23T14:33:16.702Z,120
2018-03-23T14:34:25.556Z,105
2018-03-23T14:35:34.368Z,105
2018-03-23T14:36:43.201Z,110
2018-03-23T14:37:52.033Z,115
2018-03-23T14:39:00.915Z,105
2018-03-23T14:40:09.749Z,115
2018-03-23T14:41:18.915Z,105
2018-03-23T14:42:27.743Z,105
2018-03-23T14:43:36.577Z,95
2018-03-23T14:44:45.559Z,85
2018-03-23T14:45:54.393Z,90
2018-03-23T14:47:03.224Z,90
2018-03-23T14:48:12.059Z,85
2018-03-23T14:49:20.891Z,85
2018-03-23T14:50:30.055Z,90
2018-03-23T14:51:38.881Z,100
2018-03-23T14:52:47.716Z,95
2018-03-23T14:53:56.550Z,85
2018-03-23T14:55:05.380Z,85
2018-03-23T14:56:14.264Z,95
2018-03-23T14:57:23.102Z,95
2018-03-23T14:58:32.208Z,90
2018-03-23T14:59:41.040Z,70
2018-03-23T15:00:50.151Z,75
2018-03-23T15:01:59.032Z,70
2018-03-23T15:03:07.867Z,75
2018-03-23T15:04:16.699Z,70
2018-03-23T15:05:25.887Z,60
2018-03-23T15:06:34.651Z,60
2018-03-23T15:07:43.535Z,60
2018-03-23T15:08:52.367Z,60
2018-03-23T15:10:01.202Z,65
2018-03-23T15:11:10.035Z,55
2018-03-23T15:12:18.867Z,60
2018-03-23T15:13:27.849Z,55
2018-03-23T15:14:36.688Z,55
2018-03-23T15:15:45.522Z,55
2018-03-23T15:16:54.355Z,50
2018-03-23T15:18:03.190Z,50
2018-03-23T15:19:12.074Z,50
2018-03-23T15:20:20.908Z,45
2018-03-23T15:21:29.788Z,40
2018-03-23T15:22:38.622Z,55
2018-03-23T15:23:47.457Z,70
2018-03-23T15:24:56.342Z,65
2018-03-23T15:26:05.173Z,65
2018-03-23T15:27:14.005Z,55
2018-03-23T15:28:23.123Z,65
2018-03-23T15:29:32.232Z,65
2018-03-23T15:30:41.315Z,60
2018-03-23T15:31:50.149Z,65
2018-03-23T15:32:58.983Z,85
2018-03-23T15:34:07.817Z,100
2018-03-23T15:35:16.660Z,100
2018-03-23T15:36:25.489Z,95
2018-03-23T15:37:34.322Z,85
2018-03-23T15:38:43.154Z,75
2018-03-23T15:39:51.988Z,75
2018-03-23T15:41:00.823Z,70
2018-03-23T15:42:09.706Z,70
2018-03-23T15:43:18.536Z,65
2018-03-23T15:44:27.370Z,55
2018-03-23T15:45:36.203Z,55
2018-03-23T15:46:45.037Z,55
2018-03-23T15:47:54.021Z,55
2018-03-23T15:49:02.852Z,55
2018-03-23T15:50:11.685Z,50
2018-03-23T15:51:20.795Z,50
2018-03-23T15:52:29.628Z,50
2018-03-23T15:53:39.169Z,45
2018-03-23T15:54:48.005Z,45
2018-03-23T15:55:56.832Z,45
2018-03-23T15:57:05.667Z,40
2018-03-23T15:58:14.783Z,35
2018-03-23T15:59:23.759Z,35
2018-03-23T16:00:32.591Z,40
2018-03-23T16:01:41.423Z,35
2018-03-23T16:02:50.268Z,35
2018-03-23T16:03:59.386Z,40
2018-03-23T16:05:08.458Z,40
2018-03-23T16:06:17.295Z,45
2018-03-23T16:07:26.414Z,45
2018-03-23T16:08:35.510Z,45
2018-03-23T16:09:44.343Z,45
2018-03-23T16:10:53.175Z,45
2018-03-23T16:12:02.289Z,45
2018-03-23T16:13:11.681Z,45
2018-03-23T16:14:21.344Z,40
2018-03-23T16:15:30.179Z,45
2018-03-23T16:16:39.063Z,40
2018-03-23T16:17:47.896Z,40